PRVPP SBBH-SBRJ
Flight info
| Callsign | PRVPP |
|---|---|
| Flight time | 0h 58m |
| Altitude | 32000 |
| Route | MAVGU UZ3 TOKIM |
| Aircraft | PRM1/L-SDE2E3FGHRWXY/LB1 |
Departure
| Time | 2026-04-20 05:48 |
|---|---|
| Airport | Pampulha - Carlos Drummond de Andrade Airport (SBBH) |
Arrival
| Time | 2026-04-20 06:46 |
|---|---|
| Airport | Santos Dumont Airport (SBRJ) |
| Time | Latitude | Longitude | Altitude | Speed | Heading |
|---|---|---|---|---|---|
| 2026-04-20 05:29 | -19.85441 | -43.94578 | 2590 ft | 0 kts | 296° |
| 2026-04-20 05:41 | -19.85439 | -43.94582 | 2590 ft | 2 kts | 295° |
| 2026-04-20 05:41 | -19.85416 | -43.94600 | 2587 ft | 5 kts | 13° |
| 2026-04-20 05:42 | -19.85395 | -43.94609 | 2586 ft | 4 kts | 294° |
| 2026-04-20 05:42 | -19.85381 | -43.94644 | 2590 ft | 7 kts | 291° |
| 2026-04-20 05:42 | -19.85361 | -43.94701 | 2589 ft | 10 kts | 290° |
| 2026-04-20 05:42 | -19.85334 | -43.94776 | 2585 ft | 12 kts | 290° |
| 2026-04-20 05:43 | -19.85303 | -43.94861 | 2586 ft | 12 kts | 290° |
| 2026-04-20 05:43 | -19.85280 | -43.94944 | 2592 ft | 11 kts | 288° |
| 2026-04-20 05:43 | -19.85255 | -43.95026 | 2590 ft | 12 kts | 288° |
| 2026-04-20 05:43 | -19.85209 | -43.95098 | 2591 ft | 14 kts | 355° |
| 2026-04-20 05:44 | -19.85113 | -43.95119 | 2586 ft | 14 kts | 297° |
| 2026-04-20 05:44 | -19.85123 | -43.95218 | 2593 ft | 14 kts | 260° |
| 2026-04-20 05:44 | -19.85123 | -43.95331 | 2592 ft | 16 kts | 292° |
| 2026-04-20 05:44 | -19.85081 | -43.95447 | 2588 ft | 18 kts | 291° |
| 2026-04-20 05:45 | -19.85035 | -43.95578 | 2587 ft | 18 kts | 290° |
| 2026-04-20 05:45 | -19.84993 | -43.95684 | 2587 ft | 13 kts | 302° |
| 2026-04-20 05:45 | -19.84940 | -43.95745 | 2585 ft | 11 kts | 319° |
| 2026-04-20 05:45 | -19.84883 | -43.95800 | 2584 ft | 11 kts | 317° |
| 2026-04-20 05:46 | -19.84850 | -43.95866 | 2579 ft | 9 kts | 296° |
| 2026-04-20 05:46 | -19.84829 | -43.95918 | 2581 ft | 7 kts | 291° |
| 2026-04-20 05:46 | -19.84814 | -43.95958 | 2581 ft | 6 kts | 291° |
| 2026-04-20 05:46 | -19.84792 | -43.96021 | 2586 ft | 12 kts | 291° |
| 2026-04-20 05:47 | -19.84729 | -43.96034 | 2581 ft | 10 kts | 45° |
| 2026-04-20 05:47 | -19.84729 | -43.95985 | 2579 ft | 4 kts | 114° |
| 2026-04-20 05:47 | -19.84761 | -43.95899 | 2583 ft | 36 kts | 111° |
| 2026-04-20 05:47 | -19.84919 | -43.95461 | 2587 ft | 90 kts | 111° |
| 2026-04-20 05:48 | -19.85201 | -43.94689 | 2629 ft | 132 kts | 112° |
| 2026-04-20 05:48 | -19.85535 | -43.93781 | 3281 ft | 125 kts | 111° |
| 2026-04-20 05:48 | -19.85851 | -43.92895 | 3650 ft | 133 kts | 112° |
| 2026-04-20 05:48 | -19.86202 | -43.91907 | 3802 ft | 154 kts | 109° |
| 2026-04-20 05:49 | -19.86572 | -43.90787 | 4037 ft | 164 kts | 111° |
| 2026-04-20 05:49 | -19.86976 | -43.89654 | 4496 ft | 163 kts | 111° |
| 2026-04-20 05:49 | -19.87385 | -43.88524 | 4913 ft | 165 kts | 112° |
| 2026-04-20 05:49 | -19.87799 | -43.87386 | 5477 ft | 164 kts | 112° |
| 2026-04-20 05:50 | -19.88208 | -43.86263 | 6111 ft | 163 kts | 115° |
| 2026-04-20 05:50 | -19.88883 | -43.85313 | 6693 ft | 162 kts | 141° |
| 2026-04-20 05:50 | -19.89880 | -43.84769 | 7223 ft | 163 kts | 167° |
| 2026-04-20 05:50 | -19.91009 | -43.84739 | 7782 ft | 164 kts | 192° |
| 2026-04-20 05:51 | -19.92084 | -43.85137 | 8302 ft | 167 kts | 200° |
| 2026-04-20 05:51 | -19.93184 | -43.85570 | 8853 ft | 169 kts | 200° |
| 2026-04-20 05:51 | -19.94291 | -43.86011 | 9382 ft | 171 kts | 200° |
| 2026-04-20 05:51 | -19.95406 | -43.86459 | 9907 ft | 172 kts | 200° |
| 2026-04-20 05:52 | -19.96523 | -43.86907 | 10443 ft | 172 kts | 201° |
| 2026-04-20 05:52 | -19.97649 | -43.87358 | 10958 ft | 173 kts | 201° |
| 2026-04-20 05:52 | -19.98776 | -43.87809 | 11476 ft | 173 kts | 201° |
| 2026-04-20 05:52 | -19.99910 | -43.88263 | 11977 ft | 174 kts | 201° |
| 2026-04-20 05:53 | -20.01047 | -43.88719 | 12476 ft | 175 kts | 202° |
| 2026-04-20 05:53 | -20.02187 | -43.89176 | 12961 ft | 176 kts | 202° |
| 2026-04-20 05:53 | -20.03333 | -43.89635 | 13438 ft | 176 kts | 202° |
| 2026-04-20 05:53 | -20.04469 | -43.90090 | 13907 ft | 177 kts | 202° |
| 2026-04-20 05:54 | -20.05624 | -43.90554 | 14352 ft | 178 kts | 202° |
| 2026-04-20 05:54 | -20.06848 | -43.90770 | 14809 ft | 181 kts | 178° |
| 2026-04-20 05:54 | -20.08109 | -43.90655 | 15264 ft | 183 kts | 179° |
| 2026-04-20 05:54 | -20.09379 | -43.90555 | 15700 ft | 183 kts | 178° |
| 2026-04-20 05:55 | -20.10657 | -43.90450 | 16127 ft | 185 kts | 179° |
| 2026-04-20 05:55 | -20.11940 | -43.90342 | 16550 ft | 185 kts | 179° |
| 2026-04-20 05:55 | -20.13231 | -43.90236 | 16962 ft | 187 kts | 179° |
| 2026-04-20 05:55 | -20.14527 | -43.90128 | 17383 ft | 187 kts | 179° |
| 2026-04-20 05:56 | -20.15834 | -43.90021 | 17787 ft | 189 kts | 179° |
| 2026-04-20 05:56 | -20.17145 | -43.89912 | 18173 ft | 189 kts | 179° |
| 2026-04-20 05:56 | -20.18464 | -43.89803 | 18564 ft | 190 kts | 179° |
| 2026-04-20 05:56 | -20.19785 | -43.89694 | 18939 ft | 191 kts | 179° |
| 2026-04-20 05:57 | -20.21111 | -43.89585 | 19318 ft | 191 kts | 179° |
| 2026-04-20 05:57 | -20.22442 | -43.89474 | 19690 ft | 192 kts | 179° |
| 2026-04-20 05:57 | -20.23760 | -43.89365 | 20047 ft | 193 kts | 179° |
| 2026-04-20 05:57 | -20.25101 | -43.89254 | 20391 ft | 194 kts | 179° |
| 2026-04-20 05:58 | -20.26443 | -43.89143 | 20757 ft | 194 kts | 179° |
| 2026-04-20 05:58 | -20.27792 | -43.89032 | 21109 ft | 194 kts | 179° |
| 2026-04-20 05:58 | -20.29144 | -43.88920 | 21461 ft | 195 kts | 180° |
| 2026-04-20 05:58 | -20.30499 | -43.88807 | 21789 ft | 196 kts | 180° |
| 2026-04-20 05:59 | -20.31857 | -43.88691 | 22102 ft | 196 kts | 180° |
| 2026-04-20 05:59 | -20.33220 | -43.88576 | 22427 ft | 196 kts | 180° |
| 2026-04-20 05:59 | -20.34584 | -43.88460 | 22718 ft | 198 kts | 180° |
| 2026-04-20 05:59 | -20.35962 | -43.88343 | 23046 ft | 198 kts | 180° |
| 2026-04-20 06:00 | -20.37341 | -43.88226 | 23370 ft | 199 kts | 180° |
| 2026-04-20 06:00 | -20.38719 | -43.88109 | 23698 ft | 198 kts | 180° |
| 2026-04-20 06:00 | -20.40081 | -43.87993 | 23977 ft | 200 kts | 180° |
| 2026-04-20 06:00 | -20.41471 | -43.87876 | 24254 ft | 201 kts | 180° |
| 2026-04-20 06:01 | -20.42872 | -43.87757 | 24521 ft | 203 kts | 180° |
| 2026-04-20 06:01 | -20.44282 | -43.87637 | 24782 ft | 204 kts | 180° |
| 2026-04-20 06:01 | -20.45707 | -43.87516 | 25042 ft | 206 kts | 181° |
| 2026-04-20 06:01 | -20.47143 | -43.87394 | 25310 ft | 208 kts | 181° |
| 2026-04-20 06:02 | -20.48591 | -43.87271 | 25571 ft | 209 kts | 181° |
| 2026-04-20 06:02 | -20.50049 | -43.87147 | 25819 ft | 211 kts | 181° |
| 2026-04-20 06:02 | -20.51517 | -43.87022 | 26071 ft | 212 kts | 181° |
| 2026-04-20 06:02 | -20.52997 | -43.86896 | 26331 ft | 214 kts | 181° |
| 2026-04-20 06:03 | -20.54485 | -43.86771 | 26599 ft | 214 kts | 182° |
| 2026-04-20 06:03 | -20.55971 | -43.86705 | 26827 ft | 212 kts | 192° |
| 2026-04-20 06:03 | -20.57381 | -43.87099 | 27085 ft | 209 kts | 202° |
| 2026-04-20 06:03 | -20.58780 | -43.87540 | 27338 ft | 210 kts | 201° |
| 2026-04-20 06:04 | -20.60175 | -43.87977 | 27568 ft | 212 kts | 202° |
| 2026-04-20 06:04 | -20.61594 | -43.88426 | 27827 ft | 212 kts | 202° |
| 2026-04-20 06:04 | -20.63014 | -43.88876 | 28066 ft | 214 kts | 202° |
| 2026-04-20 06:04 | -20.64436 | -43.89325 | 28354 ft | 212 kts | 202° |
| 2026-04-20 06:05 | -20.65853 | -43.89773 | 28619 ft | 212 kts | 202° |
| 2026-04-20 06:05 | -20.67273 | -43.90225 | 28895 ft | 212 kts | 203° |
| 2026-04-20 06:05 | -20.68692 | -43.90672 | 29171 ft | 213 kts | 203° |
| 2026-04-20 06:05 | -20.70024 | -43.91092 | 29438 ft | 212 kts | 204° |
| 2026-04-20 06:06 | -20.71405 | -43.91530 | 29680 ft | 212 kts | 204° |
| 2026-04-20 06:06 | -20.72838 | -43.91986 | 29805 ft | 221 kts | 204° |
| 2026-04-20 06:06 | -20.74348 | -43.92468 | 29835 ft | 232 kts | 203° |
| 2026-04-20 06:06 | -20.75931 | -43.92968 | 29874 ft | 242 kts | 203° |
| 2026-04-20 06:07 | -20.77575 | -43.93488 | 29921 ft | 251 kts | 203° |
| 2026-04-20 06:07 | -20.79279 | -43.94025 | 29956 ft | 259 kts | 202° |
| 2026-04-20 06:07 | -20.81040 | -43.94586 | 29985 ft | 267 kts | 202° |
| 2026-04-20 06:07 | -20.82236 | -43.94965 | 30004 ft | 275 kts | 202° |
| 2026-04-20 06:08 | -20.84141 | -43.95571 | 30043 ft | 295 kts | 202° |
| 2026-04-20 06:08 | -20.86164 | -43.96212 | 30093 ft | 311 kts | 202° |
| 2026-04-20 06:08 | -20.88295 | -43.96886 | 30136 ft | 325 kts | 201° |
| 2026-04-20 06:08 | -20.90503 | -43.97585 | 30174 ft | 337 kts | 201° |
| 2026-04-20 06:09 | -20.95123 | -43.99048 | 30227 ft | 354 kts | 201° |
| 2026-04-20 06:09 | -20.99915 | -44.00549 | 30496 ft | 359 kts | 201° |
| 2026-04-20 06:10 | -21.02309 | -44.01303 | 30770 ft | 357 kts | 200° |
| 2026-04-20 06:10 | -21.04691 | -44.02056 | 31037 ft | 357 kts | 200° |
| 2026-04-20 06:10 | -21.07069 | -44.02806 | 31300 ft | 356 kts | 200° |
| 2026-04-20 06:10 | -21.09447 | -44.03555 | 31570 ft | 356 kts | 200° |
| 2026-04-20 06:11 | -21.11824 | -44.04305 | 31865 ft | 355 kts | 200° |
| 2026-04-20 06:11 | -21.14200 | -44.05056 | 32019 ft | 359 kts | 199° |
| 2026-04-20 06:11 | -21.19069 | -44.06594 | 32076 ft | 370 kts | 199° |
| 2026-04-20 06:12 | -21.24048 | -44.08166 | 32081 ft | 379 kts | 199° |
| 2026-04-20 06:12 | -21.29155 | -44.09781 | 32083 ft | 385 kts | 199° |
| 2026-04-20 06:13 | -21.34326 | -44.11417 | 32082 ft | 389 kts | 199° |
| 2026-04-20 06:13 | -21.39532 | -44.13065 | 32082 ft | 391 kts | 199° |
| 2026-04-20 06:14 | -21.44782 | -44.14684 | 32066 ft | 394 kts | 195° |
| 2026-04-20 06:14 | -21.47512 | -44.15164 | 31644 ft | 401 kts | 188° |
| 2026-04-20 06:14 | -21.50286 | -44.15396 | 31113 ft | 398 kts | 187° |
| 2026-04-20 06:15 | -21.53034 | -44.15646 | 30584 ft | 395 kts | 188° |
| 2026-04-20 06:15 | -21.55756 | -44.15909 | 30060 ft | 392 kts | 188° |
| 2026-04-20 06:15 | -21.58466 | -44.16159 | 29535 ft | 389 kts | 188° |
| 2026-04-20 06:15 | -21.61158 | -44.16398 | 29022 ft | 387 kts | 187° |
| 2026-04-20 06:16 | -21.63831 | -44.16640 | 28508 ft | 384 kts | 188° |
| 2026-04-20 06:16 | -21.66483 | -44.16885 | 27995 ft | 381 kts | 188° |
| 2026-04-20 06:16 | -21.69117 | -44.17128 | 27495 ft | 379 kts | 187° |
| 2026-04-20 06:16 | -21.71709 | -44.17365 | 26995 ft | 377 kts | 187° |
| 2026-04-20 06:17 | -21.74315 | -44.17603 | 26488 ft | 375 kts | 187° |
| 2026-04-20 06:17 | -21.76915 | -44.17841 | 25988 ft | 373 kts | 187° |
| 2026-04-20 06:17 | -21.79498 | -44.18078 | 25492 ft | 371 kts | 187° |
| 2026-04-20 06:17 | -21.82067 | -44.18314 | 24995 ft | 369 kts | 187° |
| 2026-04-20 06:18 | -21.84624 | -44.18548 | 24507 ft | 368 kts | 187° |
| 2026-04-20 06:18 | -21.87169 | -44.18781 | 24018 ft | 366 kts | 187° |
| 2026-04-20 06:18 | -21.89702 | -44.19014 | 23530 ft | 365 kts | 187° |
| 2026-04-20 06:18 | -21.92233 | -44.19106 | 23024 ft | 366 kts | 177° |
| 2026-04-20 06:19 | -21.94695 | -44.18341 | 22587 ft | 369 kts | 162° |
| 2026-04-20 06:19 | -21.97064 | -44.17251 | 22129 ft | 369 kts | 159° |
| 2026-04-20 06:19 | -21.99402 | -44.16110 | 21660 ft | 368 kts | 160° |
| 2026-04-20 06:19 | -22.01755 | -44.15043 | 21199 ft | 366 kts | 161° |
| 2026-04-20 06:20 | -22.04115 | -44.14017 | 20743 ft | 365 kts | 161° |
| 2026-04-20 06:20 | -22.06467 | -44.12966 | 20283 ft | 365 kts | 160° |
| 2026-04-20 06:20 | -22.08805 | -44.11895 | 19831 ft | 365 kts | 160° |
| 2026-04-20 06:20 | -22.11142 | -44.10833 | 19375 ft | 364 kts | 160° |
| 2026-04-20 06:21 | -22.13450 | -44.09796 | 18929 ft | 363 kts | 160° |
| 2026-04-20 06:21 | -22.15785 | -44.08745 | 18471 ft | 362 kts | 160° |
| 2026-04-20 06:21 | -22.18105 | -44.07696 | 18007 ft | 361 kts | 160° |
| 2026-04-20 06:21 | -22.20414 | -44.06649 | 17565 ft | 359 kts | 160° |
| 2026-04-20 06:22 | -22.22715 | -44.05608 | 17117 ft | 358 kts | 160° |
| 2026-04-20 06:22 | -22.25011 | -44.04571 | 16671 ft | 358 kts | 160° |
| 2026-04-20 06:22 | -22.27306 | -44.03533 | 16225 ft | 357 kts | 160° |
| 2026-04-20 06:22 | -22.29598 | -44.02494 | 15780 ft | 357 kts | 160° |
| 2026-04-20 06:23 | -22.31891 | -44.01455 | 15340 ft | 357 kts | 160° |
| 2026-04-20 06:23 | -22.34182 | -44.00418 | 14888 ft | 357 kts | 160° |
| 2026-04-20 06:23 | -22.36472 | -43.99381 | 14444 ft | 356 kts | 160° |
| 2026-04-20 06:23 | -22.38756 | -43.98345 | 13998 ft | 356 kts | 160° |
| 2026-04-20 06:24 | -22.41042 | -43.97308 | 13547 ft | 355 kts | 160° |
| 2026-04-20 06:24 | -22.43320 | -43.96274 | 13103 ft | 355 kts | 159° |
| 2026-04-20 06:24 | -22.45596 | -43.95242 | 12661 ft | 354 kts | 160° |
| 2026-04-20 06:24 | -22.47867 | -43.94210 | 12219 ft | 354 kts | 160° |
| 2026-04-20 06:25 | -22.50134 | -43.93180 | 11777 ft | 353 kts | 159° |
| 2026-04-20 06:25 | -22.52397 | -43.92151 | 11338 ft | 352 kts | 159° |
| 2026-04-20 06:25 | -22.54649 | -43.91129 | 10901 ft | 351 kts | 159° |
| 2026-04-20 06:25 | -22.56879 | -43.90115 | 10466 ft | 351 kts | 159° |
| 2026-04-20 06:26 | -22.59129 | -43.89091 | 10036 ft | 351 kts | 159° |
| 2026-04-20 06:26 | -22.61362 | -43.88074 | 9813 ft | 345 kts | 159° |
| 2026-04-20 06:26 | -22.63570 | -43.87069 | 9533 ft | 343 kts | 159° |
| 2026-04-20 06:26 | -22.65766 | -43.86070 | 9238 ft | 342 kts | 159° |
| 2026-04-20 06:27 | -22.67952 | -43.85074 | 8937 ft | 341 kts | 159° |
| 2026-04-20 06:27 | -22.70133 | -43.84081 | 8637 ft | 340 kts | 159° |
| 2026-04-20 06:27 | -22.72317 | -43.83086 | 8336 ft | 340 kts | 159° |
| 2026-04-20 06:27 | -22.74491 | -43.82094 | 8077 ft | 338 kts | 159° |
| 2026-04-20 06:28 | -22.76635 | -43.81115 | 8037 ft | 331 kts | 159° |
| 2026-04-20 06:28 | -22.78744 | -43.80152 | 8021 ft | 326 kts | 159° |
| 2026-04-20 06:28 | -22.80826 | -43.79202 | 8017 ft | 322 kts | 159° |
| 2026-04-20 06:28 | -22.82883 | -43.78264 | 8015 ft | 319 kts | 159° |
| 2026-04-20 06:29 | -22.84890 | -43.77346 | 8017 ft | 316 kts | 159° |
| 2026-04-20 06:29 | -22.86910 | -43.76423 | 8015 ft | 314 kts | 159° |
| 2026-04-20 06:29 | -22.88923 | -43.75504 | 8012 ft | 312 kts | 159° |
| 2026-04-20 06:29 | -22.90923 | -43.74590 | 8011 ft | 311 kts | 159° |
| 2026-04-20 06:30 | -22.92912 | -43.73680 | 8010 ft | 310 kts | 159° |
| 2026-04-20 06:30 | -22.94800 | -43.72562 | 8000 ft | 313 kts | 142° |
| 2026-04-20 06:30 | -22.96121 | -43.70684 | 8014 ft | 316 kts | 122° |
| 2026-04-20 06:30 | -22.97115 | -43.68556 | 8020 ft | 316 kts | 117° |
| 2026-04-20 06:31 | -22.98052 | -43.66398 | 8023 ft | 315 kts | 118° |
| 2026-04-20 06:31 | -22.99069 | -43.64287 | 8022 ft | 315 kts | 119° |
| 2026-04-20 06:31 | -22.99600 | -43.61988 | 8009 ft | 320 kts | 92° |
| 2026-04-20 06:31 | -22.99076 | -43.59645 | 8018 ft | 323 kts | 66° |
| 2026-04-20 06:32 | -22.97971 | -43.57528 | 8026 ft | 323 kts | 58° |
| 2026-04-20 06:32 | -22.96794 | -43.55454 | 8033 ft | 322 kts | 60° |
| 2026-04-20 06:32 | -22.95782 | -43.53286 | 8031 ft | 322 kts | 66° |
| 2026-04-20 06:32 | -22.94888 | -43.51059 | 8035 ft | 322 kts | 67° |
| 2026-04-20 06:33 | -22.93964 | -43.48839 | 8036 ft | 323 kts | 66° |
| 2026-04-20 06:33 | -22.93016 | -43.46632 | 8031 ft | 323 kts | 65° |
| 2026-04-20 06:33 | -22.92075 | -43.44426 | 8047 ft | 322 kts | 66° |
| 2026-04-20 06:33 | -22.91142 | -43.42214 | 8046 ft | 322 kts | 66° |
| 2026-04-20 06:34 | -22.90222 | -43.40037 | 8040 ft | 322 kts | 66° |
| 2026-04-20 06:34 | -22.89285 | -43.37830 | 8042 ft | 322 kts | 66° |
| 2026-04-20 06:34 | -22.87621 | -43.33321 | 8042 ft | 322 kts | 71° |
| 2026-04-20 06:35 | -22.86861 | -43.31040 | 8042 ft | 322 kts | 71° |
| 2026-04-20 06:35 | -22.86108 | -43.28749 | 8040 ft | 322 kts | 71° |
| 2026-04-20 06:35 | -22.85542 | -43.26411 | 8027 ft | 321 kts | 86° |
| 2026-04-20 06:35 | -22.85673 | -43.24013 | 8041 ft | 318 kts | 100° |
| 2026-04-20 06:36 | -22.86085 | -43.21661 | 8043 ft | 317 kts | 104° |
| 2026-04-20 06:36 | -22.86502 | -43.19341 | 8042 ft | 302 kts | 102° |
| 2026-04-20 06:36 | -22.86794 | -43.17173 | 8013 ft | 280 kts | 99° |
| 2026-04-20 06:36 | -22.87051 | -43.15141 | 8005 ft | 263 kts | 101° |
| 2026-04-20 06:37 | -22.87320 | -43.13228 | 8007 ft | 251 kts | 101° |
| 2026-04-20 06:37 | -22.87586 | -43.11394 | 8017 ft | 242 kts | 101° |
| 2026-04-20 06:37 | -22.87839 | -43.09612 | 8016 ft | 236 kts | 101° |
| 2026-04-20 06:37 | -22.88083 | -43.07870 | 8018 ft | 231 kts | 101° |
| 2026-04-20 06:38 | -22.88321 | -43.06182 | 8015 ft | 228 kts | 101° |
| 2026-04-20 06:38 | -22.88559 | -43.04493 | 8012 ft | 225 kts | 101° |
| 2026-04-20 06:38 | -22.88793 | -43.02816 | 8010 ft | 223 kts | 101° |
| 2026-04-20 06:38 | -22.89025 | -43.01161 | 8010 ft | 221 kts | 101° |
| 2026-04-20 06:39 | -22.89258 | -42.99511 | 8011 ft | 220 kts | 101° |
| 2026-04-20 06:39 | -22.89487 | -42.97869 | 8010 ft | 219 kts | 101° |
| 2026-04-20 06:39 | -22.89717 | -42.96238 | 8007 ft | 218 kts | 101° |
| 2026-04-20 06:39 | -22.89483 | -42.94627 | 8005 ft | 223 kts | 60° |
| 2026-04-20 06:40 | -22.88324 | -42.93611 | 8009 ft | 220 kts | 15° |
| 2026-04-20 06:40 | -22.86865 | -42.93718 | 8023 ft | 210 kts | 330° |
| 2026-04-20 06:40 | -22.85899 | -42.94808 | 8042 ft | 200 kts | 296° |
| 2026-04-20 06:40 | -22.85330 | -42.96228 | 7641 ft | 209 kts | 284° |
| 2026-04-20 06:41 | -22.84966 | -42.97771 | 7189 ft | 212 kts | 281° |
| 2026-04-20 06:41 | -22.84635 | -42.99342 | 6729 ft | 215 kts | 280° |
| 2026-04-20 06:41 | -22.84309 | -43.00934 | 6265 ft | 217 kts | 280° |
| 2026-04-20 06:41 | -22.83986 | -43.02543 | 5795 ft | 218 kts | 280° |
| 2026-04-20 06:42 | -22.83665 | -43.04149 | 5319 ft | 218 kts | 280° |
| 2026-04-20 06:42 | -22.83342 | -43.05759 | 4856 ft | 219 kts | 280° |
| 2026-04-20 06:42 | -22.83038 | -43.07354 | 4389 ft | 218 kts | 277° |
| 2026-04-20 06:42 | -22.82860 | -43.08986 | 3916 ft | 218 kts | 273° |
| 2026-04-20 06:43 | -22.82720 | -43.10616 | 3447 ft | 217 kts | 273° |
| 2026-04-20 06:43 | -22.82582 | -43.12247 | 2974 ft | 217 kts | 273° |
| 2026-04-20 06:43 | -22.82477 | -43.13873 | 2494 ft | 215 kts | 265° |
| 2026-04-20 06:43 | -22.83062 | -43.15335 | 2009 ft | 214 kts | 234° |
| 2026-04-20 06:44 | -22.84024 | -43.16575 | 1540 ft | 215 kts | 230° |
| 2026-04-20 06:44 | -22.85021 | -43.17780 | 1132 ft | 213 kts | 229° |
| 2026-04-20 06:44 | -22.85986 | -43.18932 | 1032 ft | 199 kts | 229° |
| 2026-04-20 06:44 | -22.86894 | -43.19989 | 1010 ft | 185 kts | 223° |
| 2026-04-20 06:45 | -22.88065 | -43.20375 | 984 ft | 179 kts | 170° |
| 2026-04-20 06:45 | -22.88974 | -43.19625 | 987 ft | 163 kts | 112° |
| 2026-04-20 06:45 | -22.89055 | -43.18494 | 916 ft | 146 kts | 85° |
| 2026-04-20 06:45 | -22.89070 | -43.17429 | 714 ft | 136 kts | 100° |
| 2026-04-20 06:46 | -22.89491 | -43.16527 | 537 ft | 133 kts | 142° |
| 2026-04-20 06:46 | -22.90340 | -43.16314 | 143 ft | 126 kts | 179° |
| 2026-04-20 06:46 | -22.91126 | -43.16279 | 18 ft | 100 kts | 179° |
| 2026-04-20 06:46 | -22.91452 | -43.16258 | 17 ft | 20 kts | 176° |
| 2026-04-20 06:47 | -22.91523 | -43.16328 | 16 ft | 15 kts | 269° |
| 2026-04-20 06:47 | -22.91523 | -43.16347 | 16 ft | 0 kts | 269° |
| 2026-04-20 06:55 | -22.91523 | -43.16364 | 17 ft | 7 kts | 270° |
| 2026-04-20 06:55 | -22.91468 | -43.16430 | 18 ft | 18 kts | 337° |
| 2026-04-20 06:55 | -22.91315 | -43.16439 | 18 ft | 25 kts | 356° |
| 2026-04-20 06:55 | -22.91126 | -43.16453 | 19 ft | 29 kts | 356° |
| 2026-04-20 06:56 | -22.91068 | -43.16493 | 19 ft | 6 kts | 5° |
| 2026-04-20 06:56 | -22.91023 | -43.16512 | 19 ft | 10 kts | 268° |
| 2026-04-20 06:56 | -22.90983 | -43.16552 | 19 ft | 11 kts | 292° |
| 2026-04-20 06:56 | -22.90993 | -43.16655 | 19 ft | 17 kts | 249° |
| 2026-04-20 06:57 | -22.90996 | -43.16689 | 19 ft | 0 kts | 356° |